• Join FlightAware (Why Join?)
  • Login
  • US Flag 
04:12AM EDT


 

Airport Tracker/Info


-or-


 

Live Flight TrackerFlight Track Log ✈ N3223B ✈ 19-Jun-2013 ✈ FWCM / CMK - KALB

Flight Track Log - Related Links

Times and Time Zones

All times are in EDT time to prevent confusion due to time zone crossing. See the N3223B flight status page for this flight to view local times or setup timezone preferences in your user account.

Time Position Orientation Groundspeed Altitude Reporting Facility
EDT Latitude Longitude Course Direction KTS MPH feet Rate Location/Type
04:17PM 41.2667 -72.8500 323° Northwest 129 148 8,500  Level New York TRACON
04:19PM 41.3000 -72.8833 323° Northwest 161 185 8,500  Level New York TRACON
04:20PM 41.3500 -72.9000 346° North 162 186 8,500  Level New York TRACON
04:21PM 41.3833 -72.9167 339° North 167 192 8,500  Level New York TRACON
04:21PM 41.4167 -72.9500 323° Northwest 168 193 8,500  Level New York TRACON
04:23PM 41.4667 -72.9833 333° Northwest 166 191 8,600  Climbing New York TRACON
04:24PM 41.5000 -73.0167 323° Northwest 166 191 8,500 -60 Descending New York TRACON
04:25PM 41.5500 -73.0333 346° North 160 184 8,500  Level New York TRACON
04:26PM 41.5833 -73.0500 339° North 158 182 8,600 60 Climbing New York TRACON
04:26PM 41.6108 -73.0758 325° Northwest 161 185 8,600 -120 Level Boston Center
04:27PM 41.6461 -73.1014 332° Northwest 161 185 8,500 -60 Descending Boston Center
04:28PM 41.6897 -73.1239 339° North 163 188 8,500  Level Boston Center
04:29PM 41.7314 -73.1522 333° Northwest 165 190 8,600  Climbing Boston Center
04:30PM 41.7728 -73.1778 335° Northwest 167 192 8,500 -60 Descending Boston Center
04:31PM 41.8142 -73.2061 333° Northwest 166 191 8,500  Level Boston Center
04:32PM 41.8578 -73.2317 336° Northwest 165 190 8,600  Climbing Boston Center
04:33PM 41.8994 -73.2600 333° Northwest 163 188 8,500  Descending Boston Center
04:34PM 41.9367 -73.2914 328° Northwest 162 186 8,600  Climbing Boston Center
04:35PM 41.9739 -73.3197 330° Northwest 164 189 8,500 -120 Descending Boston Center
04:36PM 41.9989 -73.3397 329° Northwest 164 189 8,500 -360 Level Boston Center
04:36PM 42.0278 -73.3653 327° Northwest 164 189 8,100 -720 Descending Boston Center
04:37PM 42.0669 -73.4050 323° Northwest 177 204 7,300 -780 Descending Boston Center
04:38PM 42.1083 -73.4419 326° Northwest 180 207 6,600 -720 Descending Boston Center
04:39PM 42.1478 -73.4761 327° Northwest 173 199 5,900 -720 Descending Boston Center
04:41PM 42.1889 -73.5133 326° Northwest 164 189 5,100 -540 Descending Boston Center
04:42PM 42.2283 -73.5503 325° Northwest 156 180 4,800 -300 Descending Boston Center
04:43PM 42.2614 -73.5789 327° Northwest 146 168 4,500 -300 Descending Boston Center
04:44PM 42.2944 -73.6106 325° Northwest 146 168 4,300 -240 Descending Boston Center
04:45PM 42.3375 -73.6592 320° Northwest 164 189 4,000 -420 Descending Boston Center
04:46PM 42.3642 -73.6989 312° West 165 190 3,500 -480 Descending Boston Center
04:47PM 42.3908 -73.7417 310° West 153 176 3,100 -480 Descending Boston Center
04:48PM 42.4194 -73.7844 312° West 150 173 2,600 -540 Descending Boston Center